createdAt,value
2018-11-25T00:01:37.280Z,12.20
2018-11-25T00:04:05.142Z,10.83
2018-11-25T00:06:32.777Z,14.90
2018-11-25T00:09:00.339Z,8.30
2018-11-25T00:11:27.947Z,13.87
2018-11-25T00:13:55.471Z,13.77
2018-11-25T00:16:23.074Z,11.90
2018-11-25T00:18:50.607Z,12.70
2018-11-25T00:21:18.199Z,13.70
2018-11-25T00:23:45.771Z,10.27
2018-11-25T00:26:13.312Z,12.23
2018-11-25T00:28:40.967Z,10.50
2018-11-25T00:31:09.727Z,9.90
2018-11-25T00:33:36.172Z,12.47
2018-11-25T00:36:03.771Z,11.10
2018-11-25T00:38:31.327Z,13.30
2018-11-25T00:40:58.939Z,12.07
2018-11-25T00:43:26.604Z,11.17
2018-11-25T00:45:54.184Z,10.93
2018-11-25T00:48:21.779Z,10.30
2018-11-25T00:50:49.352Z,12.27
2018-11-25T00:53:16.954Z,12.43
2018-11-25T00:55:44.563Z,12.03
2018-11-25T00:58:12.819Z,11.80
2018-11-25T01:00:41.390Z,12.17
2018-11-25T01:03:09.255Z,13.47
2018-11-25T01:05:37.900Z,13.00
2018-11-25T01:08:05.751Z,11.43
2018-11-25T01:10:33.495Z,12.00
2018-11-25T01:13:01.543Z,11.97
2018-11-25T01:15:29.507Z,11.77
2018-11-25T01:17:57.501Z,14.13
2018-11-25T01:20:25.442Z,11.80
2018-11-25T01:22:53.449Z,11.93
2018-11-25T01:25:22.045Z,12.17
2018-11-25T01:27:49.694Z,11.73
2018-11-25T01:30:17.867Z,12.17
2018-11-25T01:32:46.552Z,12.40
2018-11-25T01:35:14.496Z,10.20
2018-11-25T01:37:43.322Z,12.20
2018-11-25T01:40:12.506Z,11.77
2018-11-25T01:42:40.331Z,15.17
2018-11-25T01:45:09.567Z,14.30
2018-11-25T01:47:37.368Z,12.30
2018-11-25T01:50:05.746Z,13.70
2018-11-25T01:52:33.750Z,13.47
2018-11-25T01:55:01.612Z,12.90
2018-11-25T01:57:29.701Z,12.07
2018-11-25T01:59:57.631Z,14.20
2018-11-25T02:02:25.307Z,14.00
2018-11-25T02:04:53.848Z,14.30
2018-11-25T02:07:22.007Z,15.13
2018-11-25T02:09:49.829Z,14.00
2018-11-25T02:12:17.705Z,13.80
2018-11-25T02:14:46.111Z,14.80
2018-11-25T02:17:14.946Z,13.83
2018-11-25T02:19:42.535Z,13.07
2018-11-25T02:22:10.375Z,12.50
2018-11-25T02:24:38.194Z,13.60
2018-11-25T02:27:06.944Z,14.20
2018-11-25T02:29:34.763Z,13.20
2018-11-25T02:32:03.610Z,13.67
2018-11-25T02:34:32.052Z,14.63
2018-11-25T02:37:00.652Z,14.80
2018-11-25T02:39:28.656Z,14.23
2018-11-25T02:41:56.443Z,14.50
2018-11-25T02:44:24.917Z,14.47
2018-11-25T02:46:52.814Z,14.77
2018-11-25T02:49:20.782Z,15.20
2018-11-25T02:51:48.755Z,17.60
2018-11-25T02:54:16.826Z,18.17
2018-11-25T02:56:44.671Z,18.70
2018-11-25T02:59:12.755Z,18.20
2018-11-25T03:01:42.166Z,19.33
2018-11-25T03:04:10.113Z,18.77
2018-11-25T03:06:37.929Z,15.20
2018-11-25T03:09:06.772Z,15.80
2018-11-25T03:11:34.950Z,17.20
2018-11-25T03:14:02.762Z,14.27
2018-11-25T03:16:30.717Z,12.57
2018-11-25T03:19:00.634Z,15.93
2018-11-25T03:21:31.644Z,15.37
2018-11-25T03:23:59.530Z,15.33
2018-11-25T03:26:28.441Z,12.43
2018-11-25T03:28:57.018Z,13.53
2018-11-25T03:31:24.874Z,12.50
2018-11-25T03:33:52.527Z,10.20
2018-11-25T03:36:20.283Z,10.40
2018-11-25T03:38:48.218Z,10.60
2018-11-25T03:41:16.921Z,8.20
2018-11-25T03:43:45.794Z,9.87
2018-11-25T03:46:14.110Z,8.20
2018-11-25T03:48:41.912Z,10.30
2018-11-25T03:51:10.323Z,8.17
2018-11-25T03:53:37.977Z,7.90
2018-11-25T03:56:05.886Z,8.83
2018-11-25T03:58:33.962Z,8.60
2018-11-25T04:01:01.783Z,9.60
2018-11-25T04:03:29.885Z,8.30
2018-11-25T04:05:57.818Z,10.37
2018-11-25T04:08:25.847Z,7.37
2018-11-25T04:10:54.179Z,8.00
2018-11-25T04:13:21.971Z,8.03
2018-11-25T04:15:50.064Z,8.83
2018-11-25T04:18:17.898Z,6.97
2018-11-25T04:20:45.572Z,8.93
2018-11-25T04:23:13.983Z,8.17
2018-11-25T04:25:41.878Z,11.93
2018-11-25T04:28:09.830Z,10.80
2018-11-25T04:30:38.236Z,9.93
2018-11-25T04:33:06.821Z,9.30
2018-11-25T04:35:36.016Z,9.77
2018-11-25T04:38:04.015Z,8.13
2018-11-25T04:40:31.951Z,8.97
2018-11-25T04:43:00.570Z,10.20
2018-11-25T04:45:28.414Z,9.20
2018-11-25T04:47:56.729Z,11.23
2018-11-25T04:50:25.722Z,9.87
2018-11-25T04:52:53.643Z,9.27
2018-11-25T04:55:21.745Z,8.40
2018-11-25T04:57:49.530Z,10.23
2018-11-25T05:00:17.596Z,10.73
2018-11-25T05:02:46.412Z,10.30
2018-11-25T05:05:15.670Z,10.60
2018-11-25T05:07:43.593Z,10.10
2018-11-25T05:10:11.905Z,9.60
2018-11-25T05:12:40.292Z,9.60
2018-11-25T05:15:09.082Z,9.23
2018-11-25T05:17:38.259Z,8.37
2018-11-25T05:20:07.564Z,8.70
2018-11-25T05:22:35.248Z,9.33
2018-11-25T05:25:03.469Z,7.67
2018-11-25T05:27:31.288Z,6.80
2018-11-25T05:30:00.247Z,6.77
2018-11-25T05:32:28.099Z,7.13
2018-11-25T05:34:56.533Z,6.43
2018-11-25T05:37:25.192Z,6.70
2018-11-25T05:39:53.799Z,6.70
2018-11-25T05:42:21.814Z,6.70
2018-11-25T05:44:50.046Z,6.97
2018-11-25T05:47:18.607Z,7.40
2018-11-25T05:49:46.903Z,8.17
2018-11-25T05:52:14.883Z,7.93
2018-11-25T05:54:42.902Z,6.33
2018-11-25T05:57:10.814Z,5.90
2018-11-25T05:59:39.400Z,5.80
2018-11-25T06:02:08.067Z,7.83
2018-11-25T06:04:36.924Z,5.33
2018-11-25T06:07:05.462Z,6.17
2018-11-25T06:09:33.318Z,5.80
2018-11-25T06:12:02.815Z,5.70
2018-11-25T06:14:30.515Z,8.50
2018-11-25T06:16:58.207Z,6.40
2018-11-25T06:19:25.822Z,6.47
2018-11-25T06:21:53.681Z,5.70
2018-11-25T06:24:21.511Z,6.43
2018-11-25T06:26:49.160Z,7.93
2018-11-25T06:29:17.897Z,6.10
2018-11-25T06:31:45.790Z,6.87
2018-11-25T06:34:13.760Z,7.50
2018-11-25T06:36:41.806Z,8.00
2018-11-25T06:39:09.676Z,6.63
2018-11-25T06:41:38.095Z,7.20
2018-11-25T06:44:06.223Z,7.23
2018-11-25T06:46:33.914Z,5.93
2018-11-25T06:49:02.945Z,5.00
2018-11-25T06:51:30.774Z,6.60
2018-11-25T06:53:58.331Z,5.33
2018-11-25T06:56:27.510Z,6.00
2018-11-25T06:58:53.886Z,5.80
2018-11-25T07:01:21.856Z,6.53
2018-11-25T07:03:50.631Z,6.10
2018-11-25T07:06:19.092Z,6.13
2018-11-25T07:08:46.915Z,5.33
2018-11-25T07:11:15.299Z,4.40
2018-11-25T07:13:43.244Z,6.33
2018-11-25T07:16:11.241Z,5.83
2018-11-25T07:18:39.071Z,5.70
2018-11-25T07:21:07.494Z,6.07
2018-11-25T07:23:35.382Z,5.63
2018-11-25T07:26:03.894Z,6.43
2018-11-25T07:28:32.419Z,5.97
2018-11-25T07:31:00.235Z,5.43
2018-11-25T07:33:28.563Z,6.00
2018-11-25T07:35:57.172Z,4.20
2018-11-25T07:38:25.200Z,4.77
2018-11-25T07:40:53.113Z,4.87
2018-11-25T07:43:21.740Z,6.53
2018-11-25T07:45:49.686Z,4.80
2018-11-25T07:48:17.361Z,4.67
2018-11-25T07:50:45.050Z,5.57
2018-11-25T07:53:12.798Z,4.70
2018-11-25T07:55:40.389Z,5.40
2018-11-25T07:58:08.012Z,3.87
2018-11-25T08:00:35.588Z,4.00
2018-11-25T08:03:03.213Z,3.93
2018-11-25T08:05:30.791Z,5.63
2018-11-25T08:07:58.452Z,4.27
2018-11-25T08:10:26.110Z,3.87
2018-11-25T08:12:53.835Z,4.70
2018-11-25T08:15:21.545Z,4.53
2018-11-25T08:17:49.202Z,3.97
2018-11-25T08:20:17.332Z,5.00
2018-11-25T08:22:44.915Z,6.33
2018-11-25T08:25:13.952Z,4.13
2018-11-25T08:27:41.588Z,5.30
2018-11-25T08:30:11.639Z,5.77
2018-11-25T08:32:39.347Z,6.13
2018-11-25T08:35:07.510Z,4.93
2018-11-25T08:37:35.207Z,4.10
2018-11-25T08:40:03.001Z,4.80
2018-11-25T08:42:30.668Z,4.50
2018-11-25T08:44:58.224Z,6.77
2018-11-25T08:47:25.939Z,6.70
2018-11-25T08:49:53.561Z,7.03
2018-11-25T08:52:21.184Z,5.30
2018-11-25T08:54:48.733Z,6.87
2018-11-25T08:57:16.291Z,5.40
2018-11-25T08:59:43.994Z,4.63
2018-11-25T09:02:11.587Z,4.83
2018-11-25T09:04:39.274Z,5.20
2018-11-25T09:07:06.836Z,5.43
2018-11-25T09:09:34.426Z,4.03
2018-11-25T09:12:01.980Z,4.57
2018-11-25T09:14:29.480Z,6.00
2018-11-25T09:16:57.043Z,5.17
2018-11-25T09:19:24.633Z,5.37
2018-11-25T09:21:52.199Z,6.60
2018-11-25T09:24:19.851Z,6.03
2018-11-25T09:26:47.428Z,4.60
2018-11-25T09:29:15.149Z,5.30
2018-11-25T09:31:42.811Z,5.70
2018-11-25T09:34:10.394Z,5.80
2018-11-25T09:36:37.959Z,5.80
2018-11-25T09:39:06.876Z,5.23
2018-11-25T09:41:34.584Z,4.40
2018-11-25T09:44:02.493Z,5.00
2018-11-25T09:46:30.152Z,5.20
2018-11-25T09:48:58.122Z,3.93
2018-11-25T09:51:25.667Z,3.43
2018-11-25T09:53:53.351Z,2.67
2018-11-25T09:56:20.939Z,3.57
2018-11-25T09:58:48.713Z,4.40
2018-11-25T10:01:16.344Z,3.40
2018-11-25T10:03:44.007Z,3.97
2018-11-25T10:06:12.933Z,4.10
2018-11-25T10:08:39.531Z,4.53
2018-11-25T10:11:07.115Z,3.70
2018-11-25T10:13:34.763Z,4.17
2018-11-25T10:16:02.541Z,3.77
2018-11-25T10:18:30.145Z,5.43
2018-11-25T10:20:57.713Z,4.77
2018-11-25T10:23:25.346Z,5.10
2018-11-25T10:25:53.322Z,5.40
2018-11-25T10:28:20.863Z,6.07
2018-11-25T10:30:48.487Z,6.77
2018-11-25T10:33:16.238Z,5.63
2018-11-25T10:35:43.836Z,6.50
2018-11-25T10:38:11.380Z,5.87
2018-11-25T10:40:38.913Z,5.70
2018-11-25T10:43:06.481Z,7.03
2018-11-25T10:45:34.124Z,7.97
2018-11-25T10:48:07.125Z,6.10
2018-11-25T10:50:36.878Z,5.10
2018-11-25T10:53:04.555Z,4.63
2018-11-25T10:55:32.175Z,6.13
2018-11-25T10:57:59.797Z,6.40
2018-11-25T11:00:33.327Z,5.33
2018-11-25T11:03:06.240Z,5.97
2018-11-25T11:05:39.225Z,5.40
2018-11-25T11:08:07.809Z,5.00
2018-11-25T11:10:35.442Z,5.07
2018-11-25T11:13:03.060Z,5.57
2018-11-25T11:15:30.611Z,5.87
2018-11-25T11:17:58.284Z,5.83
2018-11-25T11:20:25.892Z,4.83
2018-11-25T11:22:53.410Z,4.60
2018-11-25T11:25:21.050Z,5.50
2018-11-25T11:27:48.754Z,5.53
2018-11-25T11:30:16.375Z,5.57
2018-11-25T11:32:44.625Z,6.50
2018-11-25T11:35:12.986Z,5.10
2018-11-25T11:37:40.560Z,6.90
2018-11-25T11:40:12.940Z,5.60
2018-11-25T11:42:40.624Z,6.37
2018-11-25T11:45:10.852Z,5.67
2018-11-25T11:47:38.467Z,7.23
2018-11-25T11:50:08.743Z,7.13
2018-11-25T11:52:36.526Z,5.73
2018-11-25T11:55:04.792Z,6.63
2018-11-25T11:57:32.523Z,6.57
2018-11-25T12:00:00.240Z,6.20
2018-11-25T12:02:31.706Z,6.77
2018-11-25T12:04:55.810Z,6.30
2018-11-25T12:07:23.457Z,8.20
2018-11-25T12:09:51.187Z,8.50
2018-11-25T12:12:18.853Z,7.00
2018-11-25T12:14:46.437Z,8.20
2018-11-25T12:17:14.110Z,8.33
2018-11-25T12:19:41.836Z,7.93
2018-11-25T12:22:09.734Z,8.50
2018-11-25T12:24:37.374Z,8.87
2018-11-25T12:27:05.194Z,9.20
2018-11-25T12:29:32.831Z,9.60
2018-11-25T12:32:00.532Z,10.07
2018-11-25T12:34:28.230Z,8.10
2018-11-25T12:36:55.807Z,9.10
2018-11-25T12:39:28.347Z,9.07
2018-11-25T12:41:51.284Z,9.90
2018-11-25T12:44:19.001Z,9.40
2018-11-25T12:46:46.774Z,9.63
2018-11-25T12:49:14.467Z,9.17
2018-11-25T12:51:42.093Z,10.47
2018-11-25T12:54:09.855Z,8.43
2018-11-25T12:56:37.605Z,10.10
2018-11-25T12:59:05.323Z,10.57
2018-11-25T13:01:32.981Z,12.97
2018-11-25T13:04:00.698Z,11.93
2018-11-25T13:06:28.318Z,11.00
2018-11-25T13:08:55.953Z,9.70
2018-11-25T13:11:25.642Z,10.37
2018-11-25T13:13:53.313Z,11.90
2018-11-25T13:16:21.706Z,10.10
2018-11-25T13:18:49.451Z,10.47
2018-11-25T13:21:17.257Z,10.90
2018-11-25T13:23:45.041Z,11.13
2018-11-25T13:26:12.846Z,11.37
2018-11-25T13:28:40.568Z,11.73
2018-11-25T13:31:08.251Z,10.33
2018-11-25T13:33:35.878Z,12.83
2018-11-25T13:36:04.492Z,12.97
2018-11-25T13:38:32.143Z,12.37
2018-11-25T13:40:59.754Z,10.97
2018-11-25T13:43:28.348Z,11.93
2018-11-25T13:45:55.996Z,12.27
2018-11-25T13:48:23.653Z,14.33
2018-11-25T13:50:51.295Z,11.37
2018-11-25T13:53:18.978Z,13.53
2018-11-25T13:55:46.594Z,11.70
2018-11-25T13:58:14.282Z,13.60
2018-11-25T14:00:49.351Z,13.33
2018-11-25T14:03:17.831Z,14.10
2018-11-25T14:05:52.626Z,12.60
2018-11-25T14:08:13.320Z,12.50
2018-11-25T14:10:41.059Z,13.70
2018-11-25T14:13:08.916Z,13.60
2018-11-25T14:15:36.601Z,13.53
2018-11-25T14:18:04.243Z,13.10
2018-11-25T14:20:31.864Z,13.23
2018-11-25T14:22:59.477Z,13.40
2018-11-25T14:25:27.402Z,14.63
2018-11-25T14:27:57.294Z,12.63
2018-11-25T14:30:25.634Z,15.33
2018-11-25T14:32:53.423Z,16.20
2018-11-25T14:35:21.048Z,13.87
2018-11-25T14:37:48.752Z,14.70
2018-11-25T14:40:17.260Z,14.33
2018-11-25T14:42:44.972Z,13.00
2018-11-25T14:45:13.440Z,13.50
2018-11-25T14:47:41.082Z,15.93
2018-11-25T14:50:15.855Z,14.30
2018-11-25T14:52:43.950Z,15.70
2018-11-25T14:55:12.086Z,15.00
2018-11-25T14:57:39.851Z,16.90
2018-11-25T15:00:23.973Z,13.80
2018-11-25T15:02:53.494Z,14.27
2018-11-25T15:05:23.230Z,16.10
2018-11-25T15:07:50.810Z,15.20
2018-11-25T15:10:18.439Z,15.77
2018-11-25T15:12:46.090Z,16.50
2018-11-25T15:15:14.332Z,15.43
2018-11-25T15:17:42.555Z,15.57
2018-11-25T15:20:10.929Z,16.10
2018-11-25T15:22:38.790Z,15.90
2018-11-25T15:25:08.093Z,16.33
2018-11-25T15:27:35.763Z,16.57
2018-11-25T15:30:03.436Z,18.07
2018-11-25T15:32:31.167Z,15.57
2018-11-25T15:34:58.885Z,13.90
2018-11-25T15:37:26.567Z,13.87
2018-11-25T15:39:54.271Z,13.80
2018-11-25T15:42:21.960Z,11.50
2018-11-25T15:44:49.665Z,13.10
2018-11-25T15:47:17.338Z,12.80
2018-11-25T15:49:44.932Z,9.97
2018-11-25T15:52:12.685Z,10.90
2018-11-25T15:54:40.332Z,10.70
2018-11-25T15:57:08.018Z,10.90
2018-11-25T15:59:35.777Z,13.60
2018-11-25T16:02:03.415Z,11.97
2018-11-25T16:04:31.100Z,13.00
2018-11-25T16:06:58.801Z,11.20
2018-11-25T16:09:26.464Z,11.67
2018-11-25T16:11:54.156Z,14.00
2018-11-25T16:14:21.869Z,11.50
2018-11-25T16:16:49.534Z,12.13
2018-11-25T16:19:17.394Z,11.80
2018-11-25T16:21:45.040Z,12.10
2018-11-25T16:24:12.707Z,12.53
2018-11-25T16:26:40.968Z,11.40
2018-11-25T16:29:11.110Z,14.17
2018-11-25T16:31:40.089Z,14.43
2018-11-25T16:34:07.723Z,13.87
2018-11-25T16:36:35.666Z,13.70
2018-11-25T16:39:03.684Z,11.23
2018-11-25T16:41:31.406Z,10.47
2018-11-25T16:43:59.090Z,11.93
2018-11-25T16:46:26.829Z,13.03
2018-11-25T16:48:54.421Z,12.37
2018-11-25T16:51:22.102Z,9.50
2018-11-25T16:53:49.780Z,9.90
2018-11-25T16:56:17.696Z,11.03
2018-11-25T16:58:45.284Z,12.67
2018-11-25T17:01:13.036Z,10.60
2018-11-25T17:03:40.602Z,12.40
2018-11-25T17:06:08.746Z,11.47
2018-11-25T17:08:37.376Z,9.90
2018-11-25T17:11:05.294Z,10.10
2018-11-25T17:13:33.009Z,9.63
2018-11-25T17:16:00.756Z,10.43
2018-11-25T17:18:28.430Z,8.50
2018-11-25T17:20:56.208Z,9.97
2018-11-25T17:23:23.861Z,7.73
2018-11-25T17:25:51.546Z,7.10
2018-11-25T17:28:19.186Z,5.73
2018-11-25T17:30:46.815Z,5.67
2018-11-25T17:33:14.437Z,5.60
2018-11-25T17:35:42.217Z,4.77
2018-11-25T17:38:09.915Z,4.67
2018-11-25T17:40:38.269Z,4.83
2018-11-25T17:43:07.046Z,3.57
2018-11-25T17:45:34.734Z,4.00
2018-11-25T17:48:02.366Z,4.33
2018-11-25T17:50:30.255Z,3.80
2018-11-25T17:52:58.017Z,4.37
2018-11-25T17:55:27.395Z,3.50
2018-11-25T17:57:55.104Z,4.30
2018-11-25T18:00:27.091Z,4.60
2018-11-25T18:02:54.659Z,4.63
2018-11-25T18:05:22.347Z,4.10
2018-11-25T18:07:49.969Z,4.30
2018-11-25T18:10:17.728Z,3.67
2018-11-25T18:12:45.538Z,4.80
2018-11-25T18:15:19.287Z,4.03
2018-11-25T18:17:49.657Z,4.60
2018-11-25T18:20:17.376Z,5.83
2018-11-25T18:22:45.876Z,4.77
2018-11-25T18:25:13.528Z,5.30
2018-11-25T18:27:41.254Z,5.60
2018-11-25T18:30:10.834Z,5.50
2018-11-25T18:32:38.568Z,5.37
2018-11-25T18:35:06.804Z,4.60
2018-11-25T18:37:34.440Z,4.43
2018-11-25T18:40:02.477Z,4.47
2018-11-25T18:42:30.312Z,4.20
2018-11-25T18:44:57.936Z,4.50
2018-11-25T18:47:25.599Z,3.10
2018-11-25T18:49:53.262Z,4.00
2018-11-25T18:52:21.045Z,4.20
2018-11-25T18:54:48.483Z,3.40
2018-11-25T18:57:16.426Z,4.03
2018-11-25T18:59:44.118Z,3.33
2018-11-25T19:02:13.842Z,3.33
2018-11-25T19:04:41.605Z,3.67
2018-11-25T19:07:09.233Z,4.17
2018-11-25T19:09:37.100Z,3.97
2018-11-25T19:12:05.122Z,4.30
2018-11-25T19:14:32.885Z,4.77
2018-11-25T19:17:00.507Z,3.57
2018-11-25T19:19:28.069Z,3.83
2018-11-25T19:21:55.730Z,3.30
2018-11-25T19:24:23.355Z,3.70
2018-11-25T19:26:51.327Z,3.87
2018-11-25T19:29:19.541Z,3.87
2018-11-25T19:31:48.135Z,3.70
2018-11-25T19:34:15.955Z,3.40
2018-11-25T19:36:44.268Z,3.80
2018-11-25T19:39:13.637Z,4.13
2018-11-25T19:41:41.223Z,2.90
2018-11-25T19:44:13.364Z,2.97
2018-11-25T19:46:44.173Z,3.47
2018-11-25T19:49:13.723Z,3.40
2018-11-25T19:51:42.816Z,2.90
2018-11-25T19:54:14.678Z,3.30
2018-11-25T19:56:50.369Z,4.10
2018-11-25T19:59:21.018Z,3.47
2018-11-25T20:01:54.365Z,2.77
2018-11-25T20:04:24.048Z,2.50
2018-11-25T20:06:53.474Z,3.47
2018-11-25T20:09:23.922Z,3.00
2018-11-25T20:11:53.639Z,2.30
2018-11-25T20:14:23.618Z,3.10
2018-11-25T20:16:58.605Z,3.40
2018-11-25T20:19:28.254Z,2.20
2018-11-25T20:22:02.870Z,2.40
2018-11-25T20:24:33.041Z,2.70
2018-11-25T20:27:06.078Z,2.13
2018-11-25T20:29:33.828Z,2.63
2018-11-25T20:32:07.434Z,2.10
2018-11-25T20:34:35.051Z,2.00
2018-11-25T20:37:02.688Z,2.00
2018-11-25T20:39:31.885Z,1.70
2018-11-25T20:41:59.569Z,2.23
2018-11-25T20:44:27.216Z,1.90
2018-11-25T20:47:00.191Z,1.60
2018-11-25T20:49:27.807Z,1.90
2018-11-25T20:52:00.529Z,1.40
2018-11-25T20:54:29.416Z,1.33
2018-11-25T20:56:57.296Z,1.70
2018-11-25T20:59:25.405Z,1.27
2018-11-25T21:01:53.334Z,1.70
2018-11-25T21:04:21.584Z,1.60
2018-11-25T21:06:51.634Z,2.70
2018-11-25T21:09:19.424Z,3.43
2018-11-25T21:11:47.085Z,3.30
2018-11-25T21:14:14.758Z,3.43
2018-11-25T21:16:42.456Z,4.07
2018-11-25T21:19:10.152Z,3.80
2018-11-25T21:21:37.728Z,4.90
2018-11-25T21:24:05.658Z,5.03
2018-11-25T21:26:33.419Z,4.53
2018-11-25T21:29:01.088Z,4.60
2018-11-25T21:31:36.141Z,3.73
2018-11-25T21:34:03.723Z,3.90
2018-11-25T21:36:31.273Z,4.10
2018-11-25T21:38:58.919Z,4.27
2018-11-25T21:41:26.747Z,3.13
2018-11-25T21:43:54.682Z,2.90
2018-11-25T21:46:22.353Z,3.30
2018-11-25T21:48:49.963Z,3.17
2018-11-25T21:51:17.857Z,3.10
2018-11-25T21:53:45.541Z,3.80
2018-11-25T21:56:14.415Z,3.90
2018-11-25T21:58:42.286Z,3.23
2018-11-25T22:01:10.133Z,4.13
2018-11-25T22:03:37.772Z,3.27
2018-11-25T22:06:05.395Z,2.53
2018-11-25T22:08:33.034Z,4.20
2018-11-25T22:11:00.636Z,2.90
2018-11-25T22:13:28.259Z,3.77
2018-11-25T22:18:29.803Z,2.97
2018-11-25T22:20:57.361Z,2.23
2018-11-25T22:23:24.947Z,3.83
2018-11-25T22:25:52.610Z,2.83
2018-11-25T22:28:20.215Z,2.73
2018-11-25T22:30:48.109Z,4.13
2018-11-25T22:33:15.721Z,4.03
2018-11-25T22:35:43.456Z,3.67
2018-11-25T22:38:11.095Z,3.50
2018-11-25T22:40:38.783Z,4.00
2018-11-25T22:43:06.349Z,3.23
2018-11-25T22:45:33.896Z,4.20
2018-11-25T22:48:01.498Z,3.67
2018-11-25T22:50:29.165Z,4.00
2018-11-25T22:52:56.824Z,4.80
2018-11-25T22:55:25.536Z,3.50
2018-11-25T22:57:53.205Z,4.03
2018-11-25T23:00:22.359Z,3.03
2018-11-25T23:02:49.907Z,3.40
2018-11-25T23:05:22.954Z,3.30
2018-11-25T23:07:50.538Z,3.10
2018-11-25T23:10:18.092Z,4.00
2018-11-25T23:12:45.842Z,3.40
2018-11-25T23:15:13.479Z,2.83
2018-11-25T23:17:41.110Z,3.50
2018-11-25T23:20:08.843Z,4.10
2018-11-25T23:22:36.563Z,5.60
